Stations météo

réclame
Mon MeteoGroup
Lecce, Italie (16333): Température de l'air & dewpoint: 06.12.2017 05:00:00 - 12.12.2017 05:00:00 (CET)Lecce, Italie (16333): Vitesse du vent: 06.12.2017 05:00:00 - 12.12.2017 05:00:00 (CET)Lecce, Italie (16333): Direction du vent: 06.12.2017 05:00:00 - 12.12.2017 05:00:00 (CET)Lecce, Italie (16333): reduced air pressure: 06.12.2017 05:00:00 - 12.12.2017 05:00:00 (CET)Lecce, Italie (16333): Quantités de précipitations: 06.12.2017 05:00:00 - 12.12.2017 05:00:00 (CET)
Date & Time tt [°C] td [°C] ff [km/h] ff [knt] dd ppp [hPa] rr [mm]
12.12.2017 05:00:00 14,9 13,5 42 23 SSE 1017,0 -
12.12.2017 04:00:00 15,0 13,8 37 20 SSE 1017,0 -
12.12.2017 03:00:00 15,0 13,8 37 20 SSE 1017,1 -
12.12.2017 02:00:00 15,4 14,2 42 23 S 1016,9 -
12.12.2017 01:00:00 15,3 14,1 48 26 SSE 1016,8 0,0
12.12.2017 00:00:00 15,0 13,6 48 26 S 1016,8 -
11.12.2017 23:00:00 14,9 13,5 52 28 SSE 1016,7 -
11.12.2017 22:00:00 14,5 13,0 50 27 S 1016,6 -
11.12.2017 21:00:00 14,0 12,7 37 20 SSE 1016,8 -
11.12.2017 20:00:00 13,9 12,8 31 17 S 1017,2 -
11.12.2017 19:00:00 14,0 13,0 46 25 S 1016,9 0,0
11.12.2017 18:00:00 13,7 12,7 41 22 SSE 1016,8 -
11.12.2017 17:00:00 13,5 12,5 42 23 SE 1016,8 -
11.12.2017 16:00:00 14,1 12,8 46 25 SSE 1016,9 -
11.12.2017 15:00:00 15,1 12,4 52 28 S 1016,5 -
11.12.2017 14:00:00 15,6 12,5 44 24 SSE 1016,5 -
11.12.2017 13:00:00 15,4 11,4 52 28 S 1017,0 0,0
11.12.2017 12:00:00 15,2 10,1 55 30 S 1017,3 -
11.12.2017 11:00:00 15,0 9,5 59 32 SSE 1018,1 -
11.12.2017 10:00:00 14,7 9,7 44 24 SSW 1018,3 -
11.12.2017 09:00:00 13,5 10,3 22 12 S 1018,0 -
11.12.2017 08:00:00 9,8 7,9 15 8 ESE 1017,4 -
11.12.2017 07:00:00 9,7 7,1 9 5 SE 1017,7 0,0
11.12.2017 06:00:00 10,0 7,0 22 12 SSE 1017,3 -
11.12.2017 05:00:00 8,9 7,2 13 7 SE 1017,6 -
11.12.2017 04:00:00 7,9 5,7 8 4 SE 1017,8 -
11.12.2017 03:00:00 8,3 5,9 16 9 SE 1018,1 -
11.12.2017 02:00:00 8,1 5,2 8 4 SE 1018,2 -
11.12.2017 01:00:00 7,8 5,7 15 8 SE 1017,9 0,0
11.12.2017 00:00:00 8,3 5,9 16 9 SE 1018,4 -
10.12.2017 23:00:00 9,0 6,4 15 8 SE 1018,8 -
10.12.2017 22:00:00 8,2 5,3 16 9 SE 1019,1 -
10.12.2017 21:00:00 6,6 3,7 26 14 SE 1018,9 -
10.12.2017 20:00:00 6,1 2,3 15 8 SE 1019,1 -
10.12.2017 19:00:00 5,9 1,2 13 7 SE 1019,4 0,0
10.12.2017 18:00:00 6,7 1,3 9 5 SE 1019,3 -
10.12.2017 17:00:00 7,6 1,8 0 0 N 1019,4 -
10.12.2017 16:00:00 9,8 1,1 5 3 SSW 1019,3 -
10.12.2017 15:00:00 10,9 -1,3 11 6 WSW 1019,2 -
10.12.2017 14:00:00 11,2 -1,4 15 8 WSW 1019,5 -
10.12.2017 13:00:00 11,4 -0,2 4 2 WSW 1020,1 0,0
10.12.2017 12:00:00 10,8 2,8 5 3 WSW 1020,0 -
10.12.2017 11:00:00 9,0 2,9 8 4 W 1020,7 -
10.12.2017 10:00:00 7,6 2,2 9 5 W 1020,6 -
10.12.2017 09:00:00 5,3 3,6 8 4 W 1020,0 -
10.12.2017 08:00:00 1,9 0,4 0 0 N 1019,5 -
10.12.2017 07:00:00 0,6 -1,3 0 0 N 1019,1 -
10.12.2017 06:00:00 1,8 -0,5 0 0 N 1018,2 -
10.12.2017 05:00:00 2,4 -0,7 9 5 NW 1017,4 -
10.12.2017 04:00:00 3,2 -0,5 8 4 W 1017,0 -
10.12.2017 03:00:00 4,1 0,0 11 6 WSW 1016,5 -
10.12.2017 02:00:00 4,2 0,1 8 4 W 1016,2 -
10.12.2017 01:00:00 5,0 1,1 18 10 W 1015,3 -
10.12.2017 00:00:00 6,7 2,3 13 7 W 1014,8 -
09.12.2017 23:00:00 7,2 2,8 21 11 W 1013,9 -
09.12.2017 22:00:00 7,6 4,3 28 15 WNW 1012,9 -
09.12.2017 21:00:00 9,4 6,6 24 13 NW 1011,7 -
09.12.2017 20:00:00 11,1 5,8 35 19 W 1010,6 -
09.12.2017 19:00:00 12,8 5,2 48 26 WSW 1009,4 0,0
09.12.2017 18:00:00 13,6 5,9 65 35 WSW 1007,9 -
09.12.2017 17:00:00 13,6 7,5 37 20 WSW 1007,8 -
09.12.2017 16:00:00 13,9 9,1 39 21 WSW 1008,0 -
09.12.2017 15:00:00 14,7 11,1 37 20 WSW 1008,2 -
09.12.2017 14:00:00 14,9 10,5 50 27 SSW 1008,5 -
09.12.2017 13:00:00 15,1 10,3 63 34 S 1009,1 0,0
09.12.2017 12:00:00 15,1 9,8 61 33 S 1010,1 -
09.12.2017 11:00:00 15,3 11,1 41 22 SSW 1011,1 -
09.12.2017 10:00:00 14,8 11,2 41 22 S 1011,8 -
09.12.2017 09:00:00 13,5 11,7 28 15 SSE 1012,4 -
09.12.2017 08:00:00 12,4 10,8 22 12 S 1012,6 -
09.12.2017 07:00:00 11,6 10,3 22 12 SSE 1012,9 0,0
09.12.2017 06:00:00 11,7 10,4 21 11 S 1013,4 -
09.12.2017 05:00:00 10,6 9,2 15 8 SE 1014,1 -
09.12.2017 04:00:00 10,4 9,1 13 7 ESE 1014,8 -
09.12.2017 03:00:00 10,2 8,9 21 11 SSE 1015,6 -
09.12.2017 02:00:00 9,1 7,9 18 10 S 1016,7 -
09.12.2017 01:00:00 9,8 8,7 13 7 SE 1017,5 0,0
09.12.2017 00:00:00 9,9 8,8 18 10 SSE 1018,6 -
08.12.2017 23:00:00 9,9 8,8 18 10 SSE 1019,3 -
08.12.2017 22:00:00 10,0 8,9 15 8 SSE 1019,8 -
08.12.2017 21:00:00 9,9 8,8 16 9 SSE 1020,3 -
08.12.2017 20:00:00 9,7 8,4 18 10 SSE 1020,8 -
08.12.2017 19:00:00 9,7 8,3 13 7 SE 1021,3 -
08.12.2017 18:00:00 10,6 8,7 13 7 SE 1021,7 -
08.12.2017 17:00:00 11,5 8,9 11 6 SE 1022,0 -
08.12.2017 16:00:00 13,5 8,9 16 9 S 1022,3 -
08.12.2017 15:00:00 14,9 8,8 16 9 SSW 1022,2 -
08.12.2017 14:00:00 15,1 8,5 16 9 WSW 1022,6 -
08.12.2017 13:00:00 15,0 8,6 15 8 SSW 1023,6 -
08.12.2017 12:00:00 14,5 10,1 9 5 S 1024,5 -
08.12.2017 11:00:00 13,7 13,2 8 4 SSW 1025,5 -
08.12.2017 10:00:00 10,4 9,8 0 0 N 1026,3 -
08.12.2017 09:00:00 5,4 4,7 0 0 N 1026,5 -
08.12.2017 08:00:00 1,6 0,6 0 0 N 1026,8 -
08.12.2017 07:00:00 0,8 -0,2 0 0 N 1026,8 0,0
08.12.2017 06:00:00 0,7 -0,3 0 0 N 1027,1 -
08.12.2017 05:00:00 0,9 -0,1 0 0 N 1027,1 -
08.12.2017 04:00:00 1,4 0,4 0 0 N 1027,4 -
08.12.2017 03:00:00 1,7 0,7 0 0 N 1027,7 -
08.12.2017 02:00:00 1,7 0,7 0 0 N 1028,1 -
08.12.2017 01:00:00 2,6 1,6 0 0 N 1028,5 0,0
08.12.2017 00:00:00 2,6 1,6 0 0 N 1029,0 -
07.12.2017 23:00:00 3,5 2,3 0 0 N 1029,4 -
07.12.2017 22:00:00 4,1 2,9 0 0 N 1029,5 -
07.12.2017 21:00:00 5,0 3,8 0 0 N 1029,6 -
07.12.2017 20:00:00 5,7 4,3 0 0 N 1029,7 -
07.12.2017 19:00:00 7,8 6,6 0 0 N 1029,8 0,0
07.12.2017 18:00:00 9,1 7,7 5 3 NW 1029,7 -
07.12.2017 17:00:00 10,8 8,7 13 7 NW 1029,5 -
07.12.2017 16:00:00 12,9 9,5 24 13 N 1029,5 -
07.12.2017 15:00:00 13,6 9,2 21 11 N 1029,5 -
07.12.2017 14:00:00 14,2 9,2 28 15 N 1029,5 -
07.12.2017 13:00:00 14,5 9,5 28 15 N 1030,0 0,0
07.12.2017 12:00:00 14,3 10,1 24 13 NNW 1030,5 -
07.12.2017 11:00:00 12,9 10,2 22 12 NNW 1031,1 -
07.12.2017 10:00:00 11,4 10,5 24 13 NW 1031,5 -
07.12.2017 09:00:00 7,2 6,3 2 1 NW 1031,4 -
07.12.2017 08:00:00 3,7 2,7 8 4 NNW 1031,3 -
07.12.2017 07:00:00 4,1 3,1 4 2 NNW 1031,1 -
07.12.2017 06:00:00 3,7 2,7 8 4 NNW 1030,8 -
07.12.2017 05:00:00 3,1 1,9 9 5 NW 1030,8 -
07.12.2017 04:00:00 1,7 0,5 0 0 N 1031,0 -
07.12.2017 03:00:00 2,6 1,4 0 0 N 1031,1 -
07.12.2017 02:00:00 2,7 1,5 0 0 N 1031,3 -
07.12.2017 01:00:00 2,6 1,3 0 0 N 1031,5 0,0
07.12.2017 00:00:00 3,0 1,5 0 0 N 1032,0 -
06.12.2017 23:00:00 5,0 3,6 2 1 WNW 1032,1 -
06.12.2017 22:00:00 4,3 2,3 4 2 NW 1031,8 -
06.12.2017 21:00:00 5,2 2,9 4 2 WNW 1031,8 -
06.12.2017 20:00:00 6,4 3,9 4 2 WNW 1031,8 -
06.12.2017 19:00:00 6,7 3,8 9 5 WNW 1031,8 0,0
06.12.2017 18:00:00 8,6 4,0 4 2 NNW 1031,9 -
06.12.2017 17:00:00 10,0 4,9 5 3 NNW 1031,6 -
06.12.2017 16:00:00 12,8 6,1 16 9 N 1031,4 -
06.12.2017 15:00:00 13,8 7,5 18 10 N 1031,4 -
06.12.2017 14:00:00 14,4 7,8 26 14 NNW 1031,3 -
06.12.2017 13:00:00 13,9 8,3 29 16 NW 1031,8 0,0
06.12.2017 12:00:00 14,1 8,9 28 15 NW 1032,5 -
06.12.2017 11:00:00 12,0 7,9 13 7 W 1033,2 -
06.12.2017 10:00:00 11,1 7,9 18 10 WNW 1033,2 -
06.12.2017 09:00:00 8,5 7,4 11 6 WNW 1032,8 -
06.12.2017 08:00:00 4,4 3,0 11 6 NW 1032,8 -
06.12.2017 07:00:00 3,3 1,8 16 9 NW 1032,7 0,0
06.12.2017 06:00:00 3,2 1,4 9 5 NNW 1032,7 -
06.12.2017 05:00:00 2,6 -0,2 4 2 W 1032,5 -

tt = Température de l'air
td = dewpoint
ff = Vitesse du vent
dd = Direction du vent
ppp = reduced air pressure
rr = Quantités de précipitations

stations d'obs. à proximité